Time;durP1;ratioP1;P1;durP2;ratioP2;P2;SDS_P1;SDS_P2;PMS_P1;PMS_P2;Temp;Humidity;BMP_temperature;BMP_pressure;BME280_temperature;BME280_humidity;BME280_pressure;Samples;Min_cycle;Max_cycle;Signal;HPM_P1;HPM_P2
2021/04/29 00:01:17;;;;;;;9.50;7.93;;;;;;;13.79;43.47;100354.19;6131473;28;20325;-55
2021/04/29 00:04:37;;;;;;;9.37;8.10;;;;;;;13.81;43.51;100347.16;6133195;28;20497;-54
2021/04/29 00:07:59;;;;;;;8.67;7.70;;;;;;;14.02;42.47;100342.19;6119631;28;20222;-54
2021/04/29 00:11:20;;;;;;;10.13;7.17;;;;;;;13.97;42.64;100348.38;6129606;28;20576;-55
2021/04/29 00:14:40;;;;;;;8.27;7.47;;;;;;;13.85;43.42;100361.84;6127586;28;20520;-52
2021/04/29 00:18:01;;;;;;;7.77;6.97;;;;;;;13.71;44.08;100350.94;6130641;28;20235;-54
2021/04/29 00:21:22;;;;;;;9.47;7.53;;;;;;;13.95;43.42;100357.19;6135377;28;20348;-55
2021/04/29 00:24:42;;;;;;;10.57;8.83;;;;;;;13.74;44.60;100354.31;6133035;28;21085;-55
2021/04/29 00:28:04;;;;;;;9.63;8.60;;;;;;;13.64;45.42;100344.16;6135113;28;20608;-53
2021/04/29 00:31:24;;;;;;;11.73;9.33;;;;;;;13.85;44.55;100359.25;6133477;28;20239;-58
2021/04/29 00:34:44;;;;;;;9.50;8.60;;;;;;;13.59;46.61;100353.03;6134227;28;20230;-53
2021/04/29 00:38:05;;;;;;;8.90;7.43;;;;;;;13.79;45.70;100359.44;6133707;28;20235;-56
2021/04/29 00:41:25;;;;;;;8.00;7.20;;;;;;;13.44;46.80;100358.69;6133421;28;20753;-56
2021/04/29 00:44:47;;;;;;;8.07;7.13;;;;;;;13.23;47.11;100361.88;6136057;28;20231;-56
2021/04/29 00:48:08;;;;;;;11.13;7.80;;;;;;;13.39;47.19;100360.56;6129308;28;20618;-53
2021/04/29 00:51:28;;;;;;;9.00;7.77;;;;;;;13.27;48.29;100356.50;6110865;28;20283;-50
2021/04/29 00:54:49;;;;;;;10.70;8.37;;;;;;;13.06;49.21;100355.31;6143891;28;20251;-52
2021/04/29 00:58:10;;;;;;;9.30;8.40;;;;;;;13.28;48.72;100352.13;6122291;28;25295;-51
2021/04/29 01:01:33;;;;;;;12.33;9.50;;;;;;;13.14;49.23;100358.59;6123935;28;20416;-54
2021/04/29 01:04:58;;;;;;;9.77;8.77;;;;;;;13.14;49.98;100353.38;6132749;28;20567;-54
2021/04/29 01:08:27;;;;;;;12.20;9.80;;;;;;;13.11;51.45;100348.22;6130496;28;20894;-53
2021/04/29 01:11:53;;;;;;;9.10;8.17;;;;;;;13.11;52.26;100345.59;6134111;28;20227;-53
2021/04/29 01:15:16;;;;;;;9.97;9.00;;;;;;;13.11;52.52;100345.59;6125707;28;20234;-56
2021/04/29 01:18:39;;;;;;;10.33;8.47;;;;;;;13.08;53.22;100344.81;6129682;28;20239;-54
2021/04/29 01:22:00;;;;;;;11.47;9.37;;;;;;;12.94;53.91;100339.97;6136350;28;20261;-53
2021/04/29 01:25:22;;;;;;;10.13;9.23;;;;;;;12.92;54.38;100339.16;6131735;28;20235;-52
2021/04/29 01:28:46;;;;;;;13.13;8.87;;;;;;;12.75;56.27;100327.38;6130404;28;20358;-52
2021/04/29 01:32:06;;;;;;;10.47;9.27;;;;;;;12.58;57.00;100319.09;6130417;28;20243;-55
2021/04/29 01:35:27;;;;;;;12.67;10.23;;;;;;;12.79;55.41;100318.59;6128006;28;20365;-53
2021/04/29 01:38:48;;;;;;;9.30;8.37;;;;;;;12.62;56.52;100302.47;6146521;28;20254;-54
2021/04/29 01:42:09;;;;;;;9.83;8.83;;;;;;;12.69;55.97;100296.19;6132503;28;20327;-54
2021/04/29 01:45:31;;;;;;;11.13;10.03;;;;;;;12.66;55.96;100291.06;6126789;28;20231;-54
2021/04/29 01:48:53;;;;;;;10.77;9.77;;;;;;;12.70;56.16;100297.91;6132379;28;20232;-53
2021/04/29 01:52:14;;;;;;;11.67;10.23;;;;;;;12.66;56.44;100279.72;6132415;28;20231;-55
2021/04/29 01:55:35;;;;;;;10.00;9.10;;;;;;;12.78;56.05;100276.81;6129153;28;20796;-55
2021/04/29 01:58:55;;;;;;;11.13;9.77;;;;;;;12.65;57.09;100278.88;6126623;28;20234;-55
2021/04/29 02:02:17;;;;;;;11.07;9.97;;;;;;;12.46;58.06;100275.03;6127985;28;20318;-55
2021/04/29 02:05:37;;;;;;;11.93;10.63;;;;;;;12.30;59.33;100264.97;6145544;28;20234;-54
2021/04/29 02:08:57;;;;;;;10.77;9.80;;;;;;;12.35;58.15;100264.88;6124755;28;20816;-52
2021/04/29 02:12:18;;;;;;;13.23;10.27;;;;;;;12.07;60.09;100256.84;6133869;28;20239;-53
2021/04/29 02:15:41;;;;;;;10.70;9.77;;;;;;;12.18;59.20;100252.22;6124880;28;20751;-55
2021/04/29 02:19:04;;;;;;;14.83;11.57;;;;;;;12.10;59.39;100238.50;6129259;28;20235;-54
2021/04/29 02:22:26;;;;;;;14.73;12.50;;;;;;;12.33;58.42;100240.53;6134348;28;20321;-53
2021/04/29 02:25:49;;;;;;;12.23;11.03;;;;;;;12.34;58.29;100234.41;6133754;28;20239;-53
2021/04/29 02:29:10;;;;;;;13.93;9.97;;;;;;;11.98;58.83;100230.09;6130174;28;20609;-54
2021/04/29 02:32:30;;;;;;;11.53;10.43;;;;;;;12.10;57.49;100228.06;6120617;28;20223;-53
2021/04/29 02:35:51;;;;;;;11.87;10.80;;;;;;;11.86;57.89;100227.72;6129922;28;20306;-52
2021/04/29 02:39:12;;;;;;;12.50;11.23;;;;;;;11.89;58.16;100224.19;6134060;28;20239;-51
2021/04/29 02:42:33;;;;;;;11.50;10.40;;;;;;;11.78;58.37;100225.28;6131829;28;20223;-57
2021/04/29 02:45:54;;;;;;;11.33;10.33;;;;;;;12.17;57.19;100219.16;6120813;28;20274;-55
2021/04/29 02:49:14;;;;;;;10.77;9.63;;;;;;;11.99;58.03;100216.13;6128340;28;20231;-53
2021/04/29 02:52:37;;;;;;;10.27;9.27;;;;;;;12.15;57.13;100211.38;6130685;28;20227;-55
2021/04/29 02:55:58;;;;;;;16.67;15.07;;;;;;;12.17;57.35;100213.94;6130791;28;20250;-51
2021/04/29 02:59:18;;;;;;;14.33;13.00;;;;;;;12.23;56.97;100205.97;6130938;28;20235;-54
2021/04/29 03:02:39;;;;;;;11.63;10.53;;;;;;;12.12;57.39;100210.63;6123261;28;20234;-53
2021/04/29 03:05:59;;;;;;;10.40;9.50;;;;;;;12.04;57.90;100202.09;6132074;28;20239;-56
2021/04/29 03:09:22;;;;;;;10.60;9.60;;;;;;;12.21;56.46;100198.19;6132803;28;20291;-52
2021/04/29 03:12:42;;;;;;;9.23;8.43;;;;;;;12.23;56.82;100199.88;6137017;28;20325;-51
2021/04/29 03:16:03;;;;;;;10.73;9.77;;;;;;;12.18;56.77;100206.09;6137392;28;20545;-51
2021/04/29 03:19:24;;;;;;;10.27;9.37;;;;;;;12.18;56.55;100197.41;6135644;28;20231;-54
2021/04/29 03:22:44;;;;;;;11.33;10.20;;;;;;;12.19;56.12;100189.53;6139434;28;20301;-55
2021/04/29 03:26:05;;;;;;;14.40;11.87;;;;;;;12.20;56.53;100200.84;6138464;28;20258;-52
2021/04/29 03:29:26;;;;;;;11.33;10.33;;;;;;;12.19;56.04;100201.72;6137285;28;20325;-52
2021/04/29 03:32:47;;;;;;;11.10;9.90;;;;;;;12.17;56.48;100199.16;6133243;28;20636;-57
2021/04/29 03:36:07;;;;;;;11.73;10.07;;;;;;;12.08;56.95;100193.28;6144425;28;20223;-55
2021/04/29 03:39:28;;;;;;;11.53;10.00;;;;;;;12.13;57.09;100196.66;6143254;28;20235;-51
2021/04/29 03:42:49;;;;;;;11.30;10.30;;;;;;;12.07;56.60;100186.38;6142878;28;20231;-51
2021/04/29 03:46:09;;;;;;;11.40;10.20;;;;;;;11.95;56.92;100185.78;6142051;28;20832;-54
2021/04/29 03:49:30;;;;;;;12.07;9.87;;;;;;;11.99;56.72;100190.03;6141580;28;20234;-53
2021/04/29 03:52:50;;;;;;;13.60;9.97;;;;;;;11.91;56.76;100191.13;6145364;28;20247;-54
2021/04/29 03:56:11;;;;;;;12.33;10.93;;;;;;;11.97;56.03;100186.59;6141726;28;20517;-54
2021/04/29 03:59:32;;;;;;;10.90;9.67;;;;;;;11.91;56.41;100191.13;6140901;28;20633;-54
2021/04/29 04:02:52;;;;;;;12.33;11.13;;;;;;;11.90;57.03;100184.19;6141186;28;20260;-55
2021/04/29 04:06:13;;;;;;;11.67;10.43;;;;;;;11.87;56.92;100179.03;6139937;28;20235;-50
2021/04/29 04:09:33;;;;;;;12.90;11.70;;;;;;;12.10;55.86;100184.56;6148233;28;20341;-54
2021/04/29 04:12:55;;;;;;;10.73;9.77;;;;;;;11.95;56.45;100180.56;6135803;28;20227;-50
2021/04/29 04:16:16;;;;;;;12.80;11.43;;;;;;;11.86;56.55;100182.50;6140055;28;20235;-52
2021/04/29 04:19:37;;;;;;;11.40;10.40;;;;;;;11.85;56.69;100181.66;6141614;28;20657;-52
2021/04/29 04:22:57;;;;;;;12.60;11.50;;;;;;;11.90;56.60;100182.41;6135802;28;20663;-53
2021/04/29 04:26:18;;;;;;;11.77;10.67;;;;;;;12.19;55.26;100181.72;6140917;28;20243;-56
2021/04/29 04:29:38;;;;;;;11.63;10.53;;;;;;;11.96;56.89;100177.06;6139181;28;20231;-51
2021/04/29 04:32:59;;;;;;;11.83;10.73;;;;;;;12.14;56.06;100180.13;6140104;28;20549;-54
2021/04/29 04:36:20;;;;;;;12.40;11.40;;;;;;;11.95;56.58;100177.97;6142108;28;20243;-56
2021/04/29 04:39:40;;;;;;;12.50;11.40;;;;;;;12.16;56.17;100171.34;6138874;28;20231;-50
2021/04/29 04:43:01;;;;;;;12.77;11.53;;;;;;;12.04;56.14;100168.16;6139914;28;20239;-52
2021/04/29 04:46:21;;;;;;;12.43;11.13;;;;;;;12.09;56.29;100169.78;6141464;28;20239;-53
2021/04/29 04:49:43;;;;;;;12.70;11.50;;;;;;;11.77;57.02;100168.81;6137555;28;20504;-56
2021/04/29 04:53:04;;;;;;;12.80;11.70;;;;;;;11.74;57.26;100173.22;6137787;28;20878;-52
2021/04/29 04:56:24;;;;;;;13.67;12.33;;;;;;;12.11;56.00;100183.63;6141680;28;20239;-55
2021/04/29 04:59:45;;;;;;;13.33;12.03;;;;;;;11.91;56.82;100189.38;6143026;28;20250;-54
2021/04/29 05:03:05;;;;;;;13.03;11.97;;;;;;;11.95;56.52;100183.16;6126839;28;20826;-53
2021/04/29 05:06:27;;;;;;;13.43;12.17;;;;;;;12.06;56.75;100188.13;6138630;28;20230;-56
2021/04/29 05:09:47;;;;;;;13.20;11.87;;;;;;;12.08;57.01;100186.34;6140641;28;20543;-55
2021/04/29 05:13:08;;;;;;;12.87;11.57;;;;;;;12.28;56.79;100191.03;6138302;28;20239;-52
2021/04/29 05:16:28;;;;;;;14.83;13.63;;;;;;;12.37;56.11;100185.59;6139285;28;20274;-54
2021/04/29 05:19:49;;;;;;;12.77;11.77;;;;;;;12.34;55.99;100185.66;6139684;28;20234;-52
2021/04/29 05:23:10;;;;;;;14.87;13.27;;;;;;;12.44;56.19;100186.28;6139032;28;20227;-56
2021/04/29 05:26:31;;;;;;;13.87;12.67;;;;;;;12.18;56.43;100179.13;6130422;28;20234;-55
2021/04/29 05:29:54;;;;;;;14.20;12.73;;;;;;;12.08;57.85;100191.56;6139728;28;20242;-56
2021/04/29 05:33:14;;;;;;;12.93;11.83;;;;;;;12.06;57.29;100184.66;6136887;28;20231;-55
2021/04/29 05:36:35;;;;;;;14.67;13.47;;;;;;;11.99;57.70;100190.03;6136700;28;20251;-53
2021/04/29 05:39:56;;;;;;;13.70;12.40;;;;;;;12.07;57.74;100194.22;6133648;28;20235;-52
2021/04/29 05:43:17;;;;;;;13.43;11.97;;;;;;;12.00;59.72;100191.75;6131447;28;20247;-52
2021/04/29 05:46:37;;;;;;;14.07;12.87;;;;;;;12.43;56.79;100189.78;6137345;28;20592;-57
2021/04/29 05:49:58;;;;;;;14.30;12.87;;;;;;;12.46;57.84;100192.31;6132991;28;20226;-55
2021/04/29 05:53:18;;;;;;;13.93;12.73;;;;;;;12.36;57.23;100191.69;6140058;28;20231;-57
2021/04/29 05:56:39;;;;;;;15.73;13.17;;;;;;;12.17;58.42;100195.69;6132494;28;20231;-54
2021/04/29 06:00:00;;;;;;;14.40;12.93;;;;;;;12.28;57.84;100198.03;6134345;28;20227;-54
2021/04/29 06:03:21;;;;;;;14.27;12.90;;;;;;;12.50;57.66;100198.31;6136518;28;20239;-55
2021/04/29 06:06:42;;;;;;;13.60;12.33;;;;;;;12.55;58.13;100204.28;6141036;28;20223;-56
2021/04/29 06:10:03;;;;;;;14.20;12.90;;;;;;;11.99;61.03;100210.06;6139703;28;20235;-57
2021/04/29 06:13:24;;;;;;;15.00;13.50;;;;;;;13.08;57.48;100206.28;6135493;28;20223;-52
2021/04/29 06:16:44;;;;;;;14.90;13.60;;;;;;;12.63;57.91;100206.69;6133514;28;20247;-55
2021/04/29 06:20:06;;;;;;;14.87;13.43;;;;;;;11.68;60.19;100210.75;6131967;28;20235;-55
2021/04/29 06:23:26;;;;;;;14.60;13.30;;;;;;;11.59;61.34;100224.88;6131587;28;20239;-52
2021/04/29 06:26:47;;;;;;;16.23;14.53;;;;;;;11.91;60.26;100215.47;6130008;28;20251;-56
2021/04/29 06:30:10;;;;;;;14.53;13.13;;;;;;;11.86;60.53;100216.44;6136044;28;20234;-54
2021/04/29 06:33:31;;;;;;;14.43;13.07;;;;;;;12.21;59.94;100215.59;6139635;28;20231;-56
2021/04/29 06:36:52;;;;;;;15.03;13.77;;;;;;;12.05;60.45;100219.50;6129156;28;20227;-57
2021/04/29 06:40:14;;;;;;;14.83;13.47;;;;;;;12.20;59.59;100216.50;6120209;28;20239;-54
2021/04/29 06:43:34;;;;;;;16.27;14.83;;;;;;;12.11;60.14;100214.09;6129827;28;20235;-55
2021/04/29 06:46:55;;;;;;;16.67;15.17;;;;;;;12.09;59.90;100215.91;6136707;28;20235;-56
2021/04/29 06:50:17;;;;;;;15.73;14.40;;;;;;;12.11;59.86;100224.56;6131108;28;20239;-56
2021/04/29 06:53:37;;;;;;;15.93;14.33;;;;;;;11.93;60.61;100223.25;6132477;28;20626;-56
2021/04/29 06:56:59;;;;;;;15.10;13.70;;;;;;;11.77;61.10;100231.41;6120827;28;20250;-55
2021/04/29 07:00:21;;;;;;;17.00;15.40;;;;;;;12.07;60.11;100221.16;6135033;28;20242;-53
2021/04/29 07:03:42;;;;;;;16.67;15.17;;;;;;;12.37;59.23;100216.91;6129308;28;20614;-53
2021/04/29 07:07:03;;;;;;;17.93;16.23;;;;;;;12.39;58.82;100220.34;6134150;28;20223;-53
2021/04/29 07:10:25;;;;;;;16.60;15.20;;;;;;;12.28;59.30;100214.53;6139100;28;20681;-52
2021/04/29 07:13:45;;;;;;;17.07;15.57;;;;;;;12.20;59.48;100208.66;6142689;28;20255;-55
2021/04/29 07:17:05;;;;;;;15.23;13.93;;;;;;;12.14;60.27;100217.50;6142783;28;20576;-55
2021/04/29 07:20:29;;;;;;;16.83;15.47;;;;;;;12.11;59.74;100214.97;6142049;28;20239;-56
2021/04/29 07:23:49;;;;;;;17.60;15.97;;;;;;;12.22;59.78;100212.09;6138536;28;20223;-55
2021/04/29 07:27:10;;;;;;;18.17;16.47;;;;;;;11.96;60.62;100200.56;6139398;28;20749;-56
2021/04/29 07:30:32;;;;;;;18.30;16.60;;;;;;;12.08;60.31;100196.78;6131957;28;20240;-55
2021/04/29 07:33:52;;;;;;;16.27;14.87;;;;;;;12.15;60.40;100197.47;6136355;28;20228;-52
2021/04/29 07:37:14;;;;;;;17.80;16.10;;;;;;;12.38;59.59;100192.50;6142824;28;20255;-53
2021/04/29 07:40:35;;;;;;;16.70;15.33;;;;;;;12.44;59.16;100190.66;6142342;28;20231;-57
2021/04/29 07:43:56;;;;;;;18.20;16.63;;;;;;;12.43;58.71;100191.53;6131661;28;20273;-53
2021/04/29 07:47:17;;;;;;;16.97;15.27;;;;;;;12.53;58.42;100195.63;6138296;28;20612;-56
2021/04/29 07:50:38;;;;;;;17.70;16.17;;;;;;;12.66;57.96;100193.53;6139845;28;20246;-56
2021/04/29 07:54:00;;;;;;;17.20;15.70;;;;;;;12.52;57.54;100180.84;6141660;28;20219;-52
2021/04/29 07:57:20;;;;;;;16.93;15.33;;;;;;;12.32;57.78;100182.22;6139943;28;20612;-54
2021/04/29 08:00:41;;;;;;;17.83;16.23;;;;;;;12.35;58.42;100171.72;6138322;28;20334;-56
2021/04/29 08:04:02;;;;;;;18.50;16.70;;;;;;;12.32;58.22;100179.63;6133434;28;20239;-55
2021/04/29 08:07:23;;;;;;;17.40;15.80;;;;;;;12.47;58.65;100174.91;6133757;28;20316;-57
2021/04/29 08:10:45;;;;;;;16.37;14.77;;;;;;;12.48;58.41;100176.59;6140624;28;20263;-56
2021/04/29 08:14:05;;;;;;;18.83;17.03;;;;;;;12.41;59.23;100173.31;6132721;28;20232;-55
2021/04/29 08:17:26;;;;;;;17.17;15.67;;;;;;;12.60;59.75;100163.19;6139986;28;20376;-54
2021/04/29 08:20:46;;;;;;;19.27;17.47;;;;;;;12.70;59.39;100172.50;6144703;28;20243;-56
2021/04/29 08:24:07;;;;;;;17.97;16.17;;;;;;;12.28;60.88;100179.75;6140463;28;20235;-55
2021/04/29 08:27:29;;;;;;;19.13;17.33;;;;;;;12.39;60.69;100175.97;6136552;28;20261;-54
2021/04/29 08:30:49;;;;;;;19.70;17.90;;;;;;;12.46;60.25;100178.41;6135484;28;20235;-57
2021/04/29 08:34:10;;;;;;;18.00;16.57;;;;;;;12.31;61.07;100182.25;6130953;28;20258;-57
2021/04/29 08:37:31;;;;;;;20.77;18.77;;;;;;;12.55;60.81;100176.41;6133895;28;20906;-55
2021/04/29 08:40:51;;;;;;;20.20;18.30;;;;;;;12.09;62.13;100179.38;6139186;28;20243;-55
2021/04/29 08:44:13;;;;;;;20.10;18.17;;;;;;;12.91;60.50;100167.56;6138501;28;20249;-54
2021/04/29 08:47:33;;;;;;;19.73;18.03;;;;;;;12.74;60.26;100175.91;6138200;28;20239;-55
2021/04/29 08:50:54;;;;;;;19.33;17.37;;;;;;;12.91;59.74;100180.63;6135488;28;20239;-54
2021/04/29 08:54:14;;;;;;;19.43;17.60;;;;;;;12.67;60.63;100185.66;6133887;28;20227;-57
2021/04/29 08:57:35;;;;;;;17.73;16.33;;;;;;;13.08;59.21;100175.75;6137812;28;21941;-54
2021/04/29 09:01:00;;;;;;;20.33;18.43;;;;;;;13.38;59.08;100176.63;6124881;28;20329;-55
2021/04/29 09:04:21;;;;;;;18.50;16.90;;;;;;;13.60;58.88;100170.72;6140796;28;20250;-54
2021/04/29 09:07:56;;;;;;;16.67;15.20;;;;;;;13.71;57.92;100173.88;6139791;28;20243;-56
2021/04/29 09:11:19;;;;;;;18.27;16.50;;;;;;;13.74;58.19;100171.13;6134008;28;20690;-56
2021/04/29 09:14:42;;;;;;;21.53;19.40;;;;;;;13.76;58.59;100178.94;6130050;28;20262;-56
2021/04/29 09:18:09;;;;;;;18.37;16.70;;;;;;;13.38;59.67;100179.25;6137336;28;20520;-53
2021/04/29 09:21:31;;;;;;;19.97;18.17;;;;;;;13.63;58.89;100181.09;6130964;28;20228;-56
2021/04/29 09:24:52;;;;;;;19.97;18.07;;;;;;;13.54;59.41;100174.38;6135259;28;20735;-59
2021/04/29 09:28:13;;;;;;;19.87;18.27;;;;;;;14.01;58.86;100184.22;6138841;28;20228;-55
2021/04/29 09:31:38;;;;;;;18.40;16.70;;;;;;;14.08;58.63;100179.66;6130044;28;20339;-55
2021/04/29 09:35:00;;;;;;;17.17;15.63;;;;;;;14.26;57.90;100172.94;6133062;28;20601;-52
2021/04/29 09:38:31;;;;;;;19.13;17.53;;;;;;;14.42;57.38;100181.09;6129368;28;20231;-57
2021/04/29 09:41:52;;;;;;;18.23;16.60;;;;;;;13.94;58.42;100180.97;6125914;28;20601;-50
2021/04/29 09:45:18;;;;;;;17.70;16.20;;;;;;;13.72;59.47;100180.78;6126832;28;20224;-52
2021/04/29 09:48:39;;;;;;;17.27;15.77;;;;;;;13.69;59.62;100177.44;6134569;28;20239;-54
2021/04/29 09:52:03;;;;;;;19.93;18.33;;;;;;;13.74;59.92;100178.97;6129203;28;20239;-56
2021/04/29 09:55:27;;;;;;;21.23;19.23;;;;;;;13.48;60.63;100182.44;6127734;28;20239;-55
2021/04/29 09:58:49;;;;;;;20.00;18.07;;;;;;;13.39;60.98;100187.94;6128910;28;20239;-55
2021/04/29 10:02:12;;;;;;;18.60;17.00;;;;;;;13.52;60.08;100185.81;6138477;28;20311;-56
2021/04/29 10:05:36;;;;;;;20.50;18.40;;;;;;;13.32;60.98;100189.91;6123832;28;20235;-56
2021/04/29 10:08:58;;;;;;;20.57;18.67;;;;;;;13.11;62.00;100187.91;6132066;28;20343;-52
2021/04/29 10:12:21;;;;;;;19.83;18.23;;;;;;;13.11;61.96;100186.13;6134848;28;20227;-55
2021/04/29 10:15:44;;;;;;;20.20;18.43;;;;;;;12.98;63.06;100187.41;6128927;28;20227;-54
2021/04/29 10:19:04;;;;;;;21.67;19.77;;;;;;;13.28;61.56;100188.25;6134409;28;20227;-54
2021/04/29 10:22:25;;;;;;;18.83;17.17;;;;;;;13.09;62.79;100184.47;6134887;28;20231;-54
2021/04/29 10:25:50;;;;;;;18.67;17.03;;;;;;;13.10;62.62;100192.25;6131471;28;20271;-54
2021/04/29 10:29:12;;;;;;;19.77;17.87;;;;;;;13.16;62.17;100186.88;6144966;28;20235;-55
2021/04/29 10:32:34;;;;;;;20.37;18.70;;;;;;;13.20;61.86;100183.25;6132401;28;20306;-56
2021/04/29 10:35:56;;;;;;;20.67;18.80;;;;;;;12.74;63.67;100192.41;6138112;28;20227;-57
2021/04/29 10:39:19;;;;;;;19.87;18.27;;;;;;;13.09;62.30;100185.31;6138754;28;20318;-53
2021/04/29 10:42:47;;;;;;;21.90;20.00;;;;;;;13.20;61.97;100185.88;6140447;28;21525;-55
2021/04/29 10:46:09;;;;;;;19.33;17.63;;;;;;;13.15;62.32;100182.53;6140899;28;20230;-53
2021/04/29 10:49:30;;;;;;;17.80;16.30;;;;;;;13.02;63.11;100182.94;6131604;28;20231;-53
2021/04/29 10:52:52;;;;;;;18.70;17.07;;;;;;;12.99;62.79;100183.91;6138896;28;20223;-53
2021/04/29 10:56:16;;;;;;;19.23;17.53;;;;;;;12.93;62.88;100178.81;6137587;28;20547;-53
2021/04/29 10:59:39;;;;;;;19.73;17.93;;;;;;;13.06;62.68;100177.56;6140479;28;20231;-56
2021/04/29 11:03:01;;;;;;;21.17;19.47;;;;;;;13.11;62.82;100182.69;6140287;28;20231;-51
2021/04/29 11:06:30;;;;;;;20.57;18.80;;;;;;;13.00;62.89;100182.97;6135479;28;20231;-54
2021/04/29 11:10:04;;;;;;;20.30;18.57;;;;;;;12.94;63.26;100189.22;6135926;28;20230;-54
2021/04/29 11:13:26;;;;;;;19.77;18.07;;;;;;;13.05;62.59;100183.72;6136473;28;20230;-56
2021/04/29 11:16:52;;;;;;;19.63;17.97;;;;;;;12.61;63.67;100180.59;6132148;28;20239;-52
2021/04/29 11:20:13;;;;;;;17.73;16.20;;;;;;;12.61;63.05;100184.06;6136999;28;20511;-52
2021/04/29 11:23:39;;;;;;;20.53;18.63;;;;;;;12.54;63.00;100184.25;6139073;28;20220;-52
2021/04/29 11:27:00;;;;;;;18.27;16.77;;;;;;;12.45;63.33;100179.31;6137974;28;21002;-55
2021/04/29 11:30:22;;;;;;;18.20;16.70;;;;;;;12.28;64.00;100179.75;6132284;28;20231;-54
2021/04/29 11:33:46;;;;;;;17.93;16.20;;;;;;;12.24;63.97;100186.81;6133891;28;20517;-54
2021/04/29 11:37:06;;;;;;;18.30;16.80;;;;;;;12.22;63.50;100186.00;6138892;28;20231;-53
2021/04/29 11:40:29;;;;;;;18.27;16.37;;;;;;;12.24;63.45;100193.78;6138044;28;20675;-56
2021/04/29 11:43:59;;;;;;;19.33;17.57;;;;;;;12.44;63.12;100190.66;6131654;28;20227;-55
2021/04/29 11:47:20;;;;;;;19.80;18.20;;;;;;;11.88;64.87;100191.16;6136764;28;20843;-53
2021/04/29 11:50:44;;;;;;;18.30;16.80;;;;;;;12.18;63.95;100193.03;6129666;28;20621;-51
2021/04/29 11:54:06;;;;;;;19.17;17.47;;;;;;;12.33;63.23;100197.00;6140637;28;20826;-54
2021/04/29 11:57:27;;;;;;;18.43;16.73;;;;;;;12.06;64.70;100192.47;6141720;28;20227;-54
2021/04/29 12:00:49;;;;;;;18.90;17.03;;;;;;;12.30;63.55;100194.47;6140552;28;20240;-53
2021/04/29 12:04:14;;;;;;;17.53;16.13;;;;;;;12.15;64.10;100195.72;6141399;28;20235;-55
2021/04/29 12:07:41;;;;;;;19.33;17.63;;;;;;;12.52;62.81;100204.34;6128403;28;20258;-55
2021/04/29 12:11:03;;;;;;;20.03;18.33;;;;;;;12.45;63.97;100202.81;6141419;28;20246;-50
2021/04/29 12:14:25;;;;;;;20.23;18.33;;;;;;;12.49;63.96;100201.84;6141917;28;20239;-56
2021/04/29 12:17:46;;;;;;;21.47;19.43;;;;;;;12.34;64.46;100203.94;6137201;28;20231;-55
2021/04/29 12:21:07;;;;;;;20.47;18.63;;;;;;;12.47;64.39;100209.69;6135433;28;20807;-54
2021/04/29 12:24:40;;;;;;;20.77;19.07;;;;;;;12.51;64.15;100215.72;6132765;28;20235;-53
2021/04/29 12:28:11;;;;;;;19.80;17.77;;;;;;;12.41;64.24;100217.69;6138229;28;20456;-55
2021/04/29 12:31:32;;;;;;;19.43;17.53;;;;;;;12.55;63.71;100207.75;6137715;28;20226;-53
2021/04/29 12:34:52;;;;;;;13.60;12.37;;;;;;;13.25;63.69;100206.63;6139031;28;20502;-56
2021/04/29 12:38:13;;;;;;;22.00;19.90;;;;;;;12.84;62.52;100210.47;6140147;28;20232;-55
2021/04/29 12:41:34;;;;;;;18.90;17.27;;;;;;;12.84;63.07;100210.47;6137284;28;20259;-66
2021/04/29 12:44:58;;;;;;;20.00;18.20;;;;;;;13.15;62.26;100205.22;6136071;28;20239;-57
2021/04/29 12:48:24;;;;;;;19.10;17.43;;;;;;;13.19;62.59;100212.91;6136383;28;20230;-57
2021/04/29 12:51:44;;;;;;;19.83;18.03;;;;;;;13.33;61.21;100209.91;6135024;28;20254;-56
2021/04/29 12:55:11;;;;;;;18.23;16.53;;;;;;;13.41;61.50;100212.28;6130137;28;20684;-56
2021/04/29 12:58:34;;;;;;;17.73;16.17;;;;;;;13.73;61.24;100202.59;6137964;28;20266;-54
2021/04/29 13:02:05;;;;;;;19.83;17.77;;;;;;;13.83;59.02;100198.78;6132310;28;20583;-58
2021/04/29 13:05:25;;;;;;;19.40;17.43;;;;;;;13.47;60.27;100200.78;6137753;28;20238;-55
2021/04/29 13:08:54;;;;;;;18.97;17.07;;;;;;;13.13;61.70;100199.16;6126573;28;20890;-55
2021/04/29 13:12:16;;;;;;;18.73;17.13;;;;;;;13.15;61.33;100197.38;6119749;28;20529;-54
2021/04/29 13:15:37;;;;;;;19.37;17.57;;;;;;;13.22;60.52;100208.47;6135636;28;20235;-55
2021/04/29 13:18:58;;;;;;;20.67;18.87;;;;;;;13.31;60.63;100205.63;6135175;28;20355;-53
2021/04/29 13:22:19;;;;;;;19.77;17.83;;;;;;;12.97;61.58;100196.16;6136214;28;20231;-50
2021/04/29 13:25:41;;;;;;;17.10;15.50;;;;;;;12.95;61.94;100204.03;6135180;28;20231;-53
2021/04/29 13:29:02;;;;;;;18.23;16.57;;;;;;;13.04;61.43;100195.06;6137707;28;20597;-54
2021/04/29 13:32:24;;;;;;;17.50;15.90;;;;;;;12.92;62.31;100192.81;6138219;28;20236;-56
2021/04/29 13:35:44;;;;;;;20.50;18.80;;;;;;;12.78;61.74;100190.59;6133676;28;20764;-55
2021/04/29 13:39:05;;;;;;;18.37;16.57;;;;;;;12.51;62.52;100189.59;6137101;28;20231;-56
2021/04/29 13:42:26;;;;;;;19.47;17.77;;;;;;;12.75;62.01;100190.66;6138565;28;20235;-55
2021/04/29 13:45:47;;;;;;;20.47;18.60;;;;;;;12.59;63.16;100187.63;6137296;28;20231;-55
2021/04/29 13:49:08;;;;;;;18.63;16.83;;;;;;;12.83;61.76;100187.81;6139166;28;20542;-57
2021/04/29 13:52:29;;;;;;;18.40;16.77;;;;;;;12.87;61.61;100189.44;6137062;28;20314;-55
2021/04/29 13:55:49;;;;;;;17.67;16.17;;;;;;;12.95;62.60;100188.34;6134121;28;20271;-57
2021/04/29 13:59:09;;;;;;;20.80;18.93;;;;;;;12.77;63.15;100194.94;6136889;28;20313;-54
2021/04/29 14:02:30;;;;;;;16.70;15.30;;;;;;;12.58;63.31;100188.50;6131726;28;20262;-55
2021/04/29 14:05:52;;;;;;;19.13;17.23;;;;;;;12.61;62.47;100202.34;6132932;28;20231;-55
2021/04/29 14:09:13;;;;;;;18.07;16.57;;;;;;;12.26;63.99;100192.84;6119046;28;20235;-54
2021/04/29 14:12:33;;;;;;;17.50;15.87;;;;;;;12.12;64.83;100192.34;6131246;28;20633;-55
2021/04/29 14:15:54;;;;;;;16.67;15.37;;;;;;;12.21;63.79;100181.66;6129758;28;20515;-53
2021/04/29 14:19:16;;;;;;;16.33;15.07;;;;;;;12.08;64.12;100173.28;6128830;28;20239;-52
2021/04/29 14:22:38;;;;;;;17.40;15.90;;;;;;;12.16;63.35;100180.94;6134681;28;20227;-53
2021/04/29 14:25:58;;;;;;;17.30;15.80;;;;;;;12.34;63.33;100166.53;6135333;28;20322;-51
2021/04/29 14:29:18;;;;;;;15.93;14.33;;;;;;;12.31;63.44;100167.47;6132029;28;20235;-56
2021/04/29 14:32:39;;;;;;;16.43;14.93;;;;;;;12.38;63.95;100161.16;6122123;28;20223;-55
2021/04/29 14:35:59;;;;;;;14.47;13.13;;;;;;;12.54;62.97;100165.97;6127917;28;20239;-55
2021/04/29 14:39:20;;;;;;;14.83;13.50;;;;;;;12.74;62.25;100153.22;6134605;28;20542;-55
2021/04/29 14:42:43;;;;;;;12.63;11.50;;;;;;;12.68;62.05;100162.97;6134733;28;20326;-55
2021/04/29 14:46:03;;;;;;;15.00;13.80;;;;;;;12.64;62.20;100167.47;6139333;28;20239;-56
2021/04/29 14:49:24;;;;;;;15.13;13.73;;;;;;;12.66;62.22;100170.00;6136287;28;21778;-54
2021/04/29 14:52:45;;;;;;;13.20;12.10;;;;;;;12.71;61.77;100174.22;6139613;28;20624;-56
2021/04/29 14:56:06;;;;;;;12.67;11.53;;;;;;;12.52;62.76;100178.22;6134171;28;20227;-51
2021/04/29 14:59:27;;;;;;;14.17;12.50;;;;;;;12.74;61.82;100183.75;6134542;28;20268;-56
2021/04/29 15:02:48;;;;;;;13.73;12.47;;;;;;;12.87;61.21;100176.38;6133068;28;20306;-53
2021/04/29 15:06:09;;;;;;;12.63;11.57;;;;;;;12.51;63.21;100179.16;6129859;28;20223;-51
2021/04/29 15:09:29;;;;;;;20.33;13.70;;;;;;;12.62;62.25;100184.94;6134941;28;20246;-53
2021/04/29 15:12:50;;;;;;;11.67;10.67;;;;;;;12.68;61.33;100192.59;6130260;28;20258;-55
2021/04/29 15:16:11;;;;;;;11.53;10.53;;;;;;;12.33;62.61;100194.41;6129227;28;20235;-50
2021/04/29 15:19:32;;;;;;;13.03;11.97;;;;;;;12.24;63.09;100210.28;6133510;28;20255;-57